createdAt,value
2024-05-09T00:04:31.871Z,26.48
2024-05-09T00:09:40.199Z,28.75
2024-05-09T00:14:44.915Z,31.60
2024-05-09T00:19:49.632Z,27.70
2024-05-09T00:24:56.757Z,27.58
2024-05-09T00:30:01.241Z,30.10
2024-05-09T00:35:06.299Z,32.13
2024-05-09T00:40:22.464Z,34.33
2024-05-09T00:45:35.124Z,27.40
2024-05-09T00:50:41.695Z,33.20
2024-05-09T00:55:49.951Z,30.17
2024-05-09T01:00:54.801Z,29.20
2024-05-09T01:05:59.571Z,28.05
2024-05-09T01:11:07.807Z,28.35
2024-05-09T01:16:12.360Z,28.30
2024-05-09T01:21:16.801Z,28.15
2024-05-09T01:26:24.094Z,25.77
2024-05-09T01:31:28.636Z,28.08
2024-05-09T01:36:33.327Z,26.33
2024-05-09T01:41:40.397Z,25.92
2024-05-09T01:46:44.850Z,27.88
2024-05-09T01:51:49.238Z,28.90
2024-05-09T01:56:56.783Z,29.80
2024-05-09T02:02:01.454Z,27.52
2024-05-09T02:07:06.155Z,29.70
2024-05-09T02:12:13.687Z,27.85
2024-05-09T02:17:18.732Z,27.63
2024-05-09T02:22:23.512Z,29.35
2024-05-09T02:27:31.096Z,24.50
2024-05-09T02:32:35.614Z,26.90
2024-05-09T02:37:40.554Z,29.35
2024-05-09T02:42:48.122Z,27.17
2024-05-09T02:47:53.398Z,27.60
2024-05-09T02:52:58.044Z,25.95
2024-05-09T02:58:05.458Z,26.92
2024-05-09T03:03:12.507Z,24.35
2024-05-09T03:08:19.060Z,28.27
2024-05-09T03:13:26.660Z,29.98
2024-05-09T03:18:32.884Z,28.73
2024-05-09T03:23:40.046Z,31.50
2024-05-09T03:28:47.677Z,28.13
2024-05-09T03:33:53.756Z,26.60
2024-05-09T03:39:00.384Z,25.45
2024-05-09T03:44:07.917Z,28.17
2024-05-09T03:49:13.684Z,28.65
2024-05-09T03:54:18.915Z,26.90
2024-05-09T03:59:26.443Z,26.05
2024-05-09T04:04:31.013Z,27.50
2024-05-09T04:09:35.772Z,26.17
2024-05-09T04:14:43.175Z,26.55
2024-05-09T04:19:47.469Z,24.02
2024-05-09T04:24:52.883Z,27.60
2024-05-09T04:30:00.685Z,28.50
2024-05-09T04:35:05.079Z,27.25
2024-05-09T04:40:20.506Z,28.15
2024-05-09T04:45:31.490Z,24.40
2024-05-09T04:50:38.860Z,27.50
2024-05-09T04:55:44.621Z,26.67
2024-05-09T05:00:51.842Z,24.80
2024-05-09T05:05:57.336Z,26.67
2024-05-09T05:11:02.176Z,22.95
2024-05-09T05:16:09.835Z,23.30
2024-05-09T05:21:14.909Z,23.42
2024-05-09T05:26:22.073Z,22.13
2024-05-09T05:31:28.998Z,21.67
2024-05-09T05:36:33.349Z,23.90
2024-05-09T05:41:38.022Z,20.65
2024-05-09T05:46:45.442Z,19.77
2024-05-09T05:51:50.126Z,21.55
2024-05-09T05:56:54.643Z,22.25
2024-05-09T06:02:02.070Z,20.33
2024-05-09T06:07:09.121Z,20.55
2024-05-09T06:12:13.943Z,22.63
2024-05-09T06:17:22.872Z,19.35
2024-05-09T06:22:28.101Z,21.42
2024-05-09T06:27:32.510Z,21.48
2024-05-09T06:32:40.148Z,20.85
2024-05-09T06:37:45.275Z,18.13
2024-05-09T06:42:49.616Z,20.67
2024-05-09T06:47:57.128Z,15.93
2024-05-09T06:53:01.991Z,19.48
2024-05-09T06:58:10.045Z,17.40
2024-05-09T07:03:19.107Z,19.00
2024-05-09T07:08:24.327Z,18.23
2024-05-09T07:13:33.121Z,18.67
2024-05-09T07:18:40.529Z,20.05
2024-05-09T07:23:47.443Z,18.02
2024-05-09T07:28:52.511Z,19.23
2024-05-09T07:34:00.755Z,17.63
2024-05-09T07:39:05.668Z,19.17
2024-05-09T07:44:10.009Z,17.10
2024-05-09T07:50:56.103Z,15.02
2024-05-09T07:54:41.537Z,15.20
2024-05-09T07:59:46.878Z,14.50
2024-05-09T08:04:55.604Z,17.33
2024-05-09T08:10:00.312Z,14.57
2024-05-09T08:15:05.001Z,16.80
2024-05-09T08:20:15.928Z,14.60
2024-05-09T08:25:24.117Z,12.45
2024-05-09T08:30:34.108Z,12.20
2024-05-09T08:35:45.376Z,11.68
2024-05-09T08:40:50.723Z,11.98
2024-05-09T08:45:55.658Z,11.27
2024-05-09T08:51:03.305Z,13.68
2024-05-09T08:56:09.732Z,14.15
2024-05-09T09:01:15.433Z,11.85
2024-05-09T09:06:24.491Z,10.82
2024-05-09T09:11:30.204Z,9.43
2024-05-09T09:16:35.910Z,10.07
2024-05-09T09:21:43.026Z,11.05
2024-05-09T09:26:47.725Z,10.35
2024-05-09T09:32:00.665Z,8.60
2024-05-09T09:37:09.035Z,10.38
2024-05-09T09:42:14.328Z,8.88
2024-05-09T09:47:20.378Z,10.35
2024-05-09T09:52:27.738Z,11.52
2024-05-09T09:57:35.770Z,16.85
2024-05-09T10:02:41.265Z,10.52
2024-05-09T10:07:49.141Z,12.75
2024-05-09T10:13:00.610Z,13.13
2024-05-09T10:18:09.015Z,10.10
2024-05-09T10:23:32.576Z,8.35
2024-05-09T10:28:37.718Z,10.32
2024-05-09T10:33:42.913Z,9.35
2024-05-09T10:38:52.164Z,8.60
2024-05-09T10:43:56.549Z,9.15
2024-05-09T10:49:06.226Z,11.10
2024-05-09T10:54:15.446Z,9.85
2024-05-09T10:59:21.345Z,9.30
2024-05-09T11:04:26.192Z,8.60
2024-05-09T11:09:34.806Z,9.15
2024-05-09T11:14:39.772Z,10.48
2024-05-09T11:19:46.620Z,10.45
2024-05-09T11:24:54.952Z,11.90
2024-05-09T11:30:00.297Z,8.10
2024-05-09T11:35:05.152Z,8.07
2024-05-09T11:40:21.189Z,9.13
2024-05-09T11:45:32.279Z,7.93
2024-05-09T11:50:37.443Z,8.82
2024-05-09T11:55:44.918Z,7.63
2024-05-09T12:00:49.568Z,7.95
2024-05-09T12:05:54.449Z,6.78
2024-05-09T12:11:01.791Z,7.60
2024-05-09T12:16:07.141Z,7.38
2024-05-09T12:21:11.950Z,9.30
2024-05-09T12:26:19.759Z,6.22
2024-05-09T12:31:24.420Z,6.05
2024-05-09T12:36:29.446Z,5.78
2024-05-09T12:41:37.312Z,7.72
2024-05-09T12:46:41.923Z,10.13
2024-05-09T12:51:50.277Z,7.38
2024-05-09T12:56:57.451Z,9.25
2024-05-09T13:02:04.398Z,6.68
2024-05-09T13:07:15.679Z,8.73
2024-05-09T13:12:24.327Z,7.68
2024-05-09T13:17:29.366Z,8.05
2024-05-09T13:22:33.830Z,10.23
2024-05-09T13:27:42.503Z,9.25
2024-05-09T13:32:47.405Z,8.93
2024-05-09T13:37:52.472Z,13.93
2024-05-09T13:43:00.044Z,8.95
2024-05-09T13:48:06.663Z,8.52
2024-05-09T13:53:12.416Z,9.18
2024-05-09T13:58:19.965Z,7.05
2024-05-09T14:03:25.123Z,8.90
2024-05-09T14:08:29.787Z,6.70
2024-05-09T14:13:39.566Z,5.40
2024-05-09T14:18:44.264Z,6.45
2024-05-09T14:23:50.517Z,5.78
2024-05-09T14:28:57.972Z,6.40
2024-05-09T14:34:02.802Z,6.30
2024-05-09T14:39:07.561Z,6.88
2024-05-09T14:44:14.954Z,7.13
2024-05-09T14:49:20.260Z,6.45
2024-05-09T14:54:25.253Z,5.82
2024-05-09T14:59:32.438Z,5.57
2024-05-09T15:04:37.443Z,8.90
2024-05-09T15:09:50.290Z,6.85
2024-05-09T15:14:57.522Z,6.47
2024-05-09T15:20:07.348Z,6.93
2024-05-09T15:25:13.642Z,4.88
2024-05-09T15:35:32.183Z,6.10
2024-05-09T15:40:40.037Z,6.15
2024-05-09T15:45:48.284Z,6.07
2024-05-09T15:50:53.151Z,7.93
2024-05-09T15:55:58.139Z,5.63
2024-05-09T16:01:05.742Z,5.80
2024-05-09T16:06:10.521Z,6.68
2024-05-09T16:11:17.426Z,5.30
2024-05-09T16:16:24.820Z,5.03
2024-05-09T16:21:29.378Z,7.78
2024-05-09T16:26:33.840Z,6.28
2024-05-09T16:31:40.997Z,4.95
2024-05-09T16:36:45.651Z,4.78
2024-05-09T16:41:50.787Z,5.15
2024-05-09T16:46:58.370Z,7.47
2024-05-09T16:52:03.533Z,4.30
2024-05-09T16:57:08.685Z,7.28
2024-05-09T17:02:16.216Z,5.38
2024-05-09T17:07:21.166Z,5.88
2024-05-09T17:12:26.987Z,6.97
2024-05-09T17:17:34.382Z,6.57
2024-05-09T17:22:39.047Z,8.40
2024-05-09T17:27:43.949Z,8.32
2024-05-09T17:32:51.501Z,7.00
2024-05-09T17:37:55.978Z,9.48
2024-05-09T17:43:00.991Z,6.30
2024-05-09T17:48:10.596Z,6.50
2024-05-09T17:53:16.047Z,7.22
2024-05-09T17:58:20.618Z,5.82
2024-05-09T18:03:28.120Z,6.80
2024-05-09T18:08:32.657Z,6.50
2024-05-09T18:13:37.060Z,6.55
2024-05-09T18:18:44.775Z,7.20
2024-05-09T18:23:52.114Z,6.45
2024-05-09T18:28:56.934Z,7.68
2024-05-09T18:34:16.518Z,7.50
2024-05-09T18:39:44.338Z,9.25
2024-05-09T18:50:54.094Z,8.75
2024-05-09T18:56:01.497Z,7.72
2024-05-09T19:01:06.389Z,7.10
2024-05-09T19:06:11.197Z,7.90
2024-05-09T19:11:18.373Z,9.60
2024-05-09T19:16:23.074Z,8.60
2024-05-09T19:21:27.756Z,8.50
2024-05-09T19:26:35.195Z,7.82
2024-05-09T19:31:40.475Z,8.20
2024-05-09T19:36:45.786Z,8.98
2024-05-09T19:41:54.378Z,8.48
2024-05-09T19:46:59.397Z,8.57
2024-05-09T19:52:03.929Z,13.13
2024-05-09T19:57:11.175Z,10.88
2024-05-09T20:02:17.620Z,10.20
2024-05-09T20:07:22.479Z,9.43
2024-05-09T20:12:30.096Z,9.60
2024-05-09T20:17:34.936Z,13.98
2024-05-09T20:22:40.269Z,13.82
2024-05-09T20:27:48.270Z,11.27
2024-05-09T20:32:58.509Z,15.55
2024-05-09T20:38:04.282Z,32.28
2024-05-09T20:43:12.436Z,12.88
2024-05-09T20:48:17.533Z,10.68
2024-05-09T20:53:22.881Z,12.18
2024-05-09T20:58:30.854Z,20.27
2024-05-09T21:03:38.500Z,14.93
2024-05-09T21:08:43.578Z,13.90
2024-05-09T21:13:50.787Z,10.68
2024-05-09T21:18:55.576Z,11.75
2024-05-09T21:24:00.256Z,12.85
2024-05-09T21:29:07.368Z,13.40
2024-05-09T21:34:12.144Z,16.15
2024-05-09T21:39:16.961Z,13.05
2024-05-09T21:44:24.455Z,13.07
2024-05-09T21:49:29.517Z,16.20
2024-05-09T21:54:34.394Z,15.23
2024-05-09T21:59:42.126Z,15.75
2024-05-09T22:04:47.022Z,15.05
2024-05-09T22:09:51.706Z,15.07
2024-05-09T22:14:59.143Z,15.35
2024-05-09T22:20:11.973Z,18.42
2024-05-09T22:25:25.354Z,14.55
2024-05-09T22:30:38.208Z,15.98
2024-05-09T22:35:44.969Z,13.60
2024-05-09T22:40:50.308Z,14.18
2024-05-09T22:45:57.723Z,14.98
2024-05-09T22:51:02.497Z,14.55
2024-05-09T22:56:07.281Z,16.10
2024-05-09T23:01:19.771Z,15.18
2024-05-09T23:06:24.211Z,14.05
2024-05-09T23:11:28.776Z,16.75
2024-05-09T23:16:36.138Z,14.90
2024-05-09T23:21:42.770Z,14.77
2024-05-09T23:26:47.194Z,13.10
2024-05-09T23:31:54.468Z,14.43
2024-05-09T23:36:59.170Z,20.95
2024-05-09T23:42:03.730Z,15.18
2024-05-09T23:47:11.293Z,16.38
2024-05-09T23:52:16.089Z,15.73
2024-05-09T23:57:20.894Z,15.40
